Terminal Aerodrome Forecast
Issued by NWS

Home | Current Version | Previous Version | Text Only | Print | Product List | Glossary On
Versions: 1 2 3 4 5 6 7 8 9 10 11 12 13 14
000
FTUS45 KGJT 271120
TAFCNY
TAF
KCNY 271120Z 2712/2812 13004KT P6SM VCSH SKC
     FM271800 15004KT P6SM VCSH SCT070 BKN110
     FM272200 28008KT P6SM VCTS BKN060CB OVC110
     FM280300 15005KT P6SM VCSH SCT070 BKN120
     FM280600 13005KT P6SM SCT150=

USA.gov is the U.S. government's official web portal to all federal, state and local government web resources and services.